OTBD/DOH METAR and TAF weather

Enter ICAO airport designator
Station Type Date Time Source
OTBD METAR 2021/03/05 13:00 UTC NOAA

OTBD 051300Z 33018G29KT 6000 NSC 25/13 Q1015 NOSIG


Station Type Date Time Source
OTBD Decoded METAR 2021/03/05 13:00 UTC NOAA

Doha International Airport, Qatar (OTBD) 25-15N 051-34E 10M
Mar 05, 2021 - 08:00 AM EST / 2021.03.05 1300 UTC
Wind: from the NNW (330 degrees) at 21 MPH (18 KT) gusting to 33 MPH (29 KT):0
Visibility: 3 mile(s):0
Temperature: 77 F (25 C)
Dew Point: 55 F (13 C)
Relative Humidity: 47%
Pressure (altimeter): 29.97 in. Hg (1015 hPa)
ob: OTBD 051300Z 33018G29KT 6000 NSC 25/13 Q1015 NOSIG
cycle: 13

Station Type Date Time Source
OTBD TAF 2021/03/05 12:12 UTC NOAA

TAF TAF OTBD 051108Z 0512/0618 32019KT 6000 NSC
TEMPO 0512/0518 33024G34KT 3000 BLDU

Example: see airport list